sensor_id;sensor_type;location;lat;lon;timestamp;P1;durP1;ratioP1;P2;durP2;ratioP2
17953;SDS011;9102;53.548;9.926;2022-08-02T00:01:39;7.60;;;1.70;;
17953;SDS011;9102;53.548;9.926;2022-08-02T00:04:07;12.60;;;1.95;;
17953;SDS011;9102;53.548;9.926;2022-08-02T00:06:34;8.93;;;2.13;;
17953;SDS011;9102;53.548;9.926;2022-08-02T00:09:03;8.13;;;2.00;;
17953;SDS011;9102;53.548;9.926;2022-08-02T00:11:31;6.05;;;1.98;;
17953;SDS011;9102;53.548;9.926;2022-08-02T00:13:58;10.25;;;2.03;;
17953;SDS011;9102;53.548;9.926;2022-08-02T00:16:24;10.82;;;2.20;;
17953;SDS011;9102;53.548;9.926;2022-08-02T00:18:51;6.80;;;1.95;;
17953;SDS011;9102;53.548;9.926;2022-08-02T00:21:18;6.32;;;1.90;;
17953;SDS011;9102;53.548;9.926;2022-08-02T00:23:45;11.27;;;2.33;;
17953;SDS011;9102;53.548;9.926;2022-08-02T00:26:13;9.80;;;2.20;;
17953;SDS011;9102;53.548;9.926;2022-08-02T00:28:40;8.88;;;1.88;;
17953;SDS011;9102;53.548;9.926;2022-08-02T00:31:07;8.00;;;1.52;;
17953;SDS011;9102;53.548;9.926;2022-08-02T00:33:34;14.20;;;2.40;;
17953;SDS011;9102;53.548;9.926;2022-08-02T00:36:01;4.75;;;1.83;;
17953;SDS011;9102;53.548;9.926;2022-08-02T00:38:28;7.28;;;2.00;;
17953;SDS011;9102;53.548;9.926;2022-08-02T00:40:55;11.55;;;2.55;;
17953;SDS011;9102;53.548;9.926;2022-08-02T00:43:23;5.90;;;1.90;;
17953;SDS011;9102;53.548;9.926;2022-08-02T00:45:50;7.68;;;2.08;;
17953;SDS011;9102;53.548;9.926;2022-08-02T00:48:17;8.50;;;1.88;;
17953;SDS011;9102;53.548;9.926;2022-08-02T00:50:44;6.70;;;1.95;;
17953;SDS011;9102;53.548;9.926;2022-08-02T00:53:11;5.03;;;2.00;;
17953;SDS011;9102;53.548;9.926;2022-08-02T00:55:38;13.15;;;2.67;;
17953;SDS011;9102;53.548;9.926;2022-08-02T00:58:05;12.25;;;2.10;;
17953;SDS011;9102;53.548;9.926;2022-08-02T01:00:33;10.43;;;2.10;;
17953;SDS011;9102;53.548;9.926;2022-08-02T01:03:00;7.53;;;2.75;;
17953;SDS011;9102;53.548;9.926;2022-08-02T01:05:27;12.63;;;2.53;;
17953;SDS011;9102;53.548;9.926;2022-08-02T01:07:54;9.05;;;3.08;;
17953;SDS011;9102;53.548;9.926;2022-08-02T01:10:22;9.93;;;2.78;;
17953;SDS011;9102;53.548;9.926;2022-08-02T01:12:49;7.60;;;2.75;;
17953;SDS011;9102;53.548;9.926;2022-08-02T01:15:16;13.02;;;3.20;;
17953;SDS011;9102;53.548;9.926;2022-08-02T01:17:46;18.90;;;3.78;;
17953;SDS011;9102;53.548;9.926;2022-08-02T01:20:24;12.73;;;3.05;;
17953;SDS011;9102;53.548;9.926;2022-08-02T01:23:12;9.32;;;2.55;;
17953;SDS011;9102;53.548;9.926;2022-08-02T01:25:56;10.18;;;2.95;;
17953;SDS011;9102;53.548;9.926;2022-08-02T01:28:36;10.50;;;2.63;;
17953;SDS011;9102;53.548;9.926;2022-08-02T01:31:11;10.35;;;2.67;;
17953;SDS011;9102;53.548;9.926;2022-08-02T01:33:44;7.20;;;2.53;;
17953;SDS011;9102;53.548;9.926;2022-08-02T01:36:17;10.95;;;2.80;;
17953;SDS011;9102;53.548;9.926;2022-08-02T01:38:45;11.25;;;2.45;;
17953;SDS011;9102;53.548;9.926;2022-08-02T01:41:17;7.82;;;2.50;;
17953;SDS011;9102;53.548;9.926;2022-08-02T01:43:48;12.18;;;2.72;;
17953;SDS011;9102;53.548;9.926;2022-08-02T01:46:17;10.38;;;2.50;;
17953;SDS011;9102;53.548;9.926;2022-08-02T01:48:45;12.05;;;2.50;;
17953;SDS011;9102;53.548;9.926;2022-08-02T01:51:15;9.05;;;2.50;;
17953;SDS011;9102;53.548;9.926;2022-08-02T01:53:44;10.57;;;2.75;;
17953;SDS011;9102;53.548;9.926;2022-08-02T01:56:15;12.27;;;2.80;;
17953;SDS011;9102;53.548;9.926;2022-08-02T01:58:42;8.70;;;2.70;;
17953;SDS011;9102;53.548;9.926;2022-08-02T02:01:12;9.52;;;2.70;;
17953;SDS011;9102;53.548;9.926;2022-08-02T02:03:42;13.70;;;2.90;;
17953;SDS011;9102;53.548;9.926;2022-08-02T02:06:10;6.50;;;2.78;;
17953;SDS011;9102;53.548;9.926;2022-08-02T02:08:38;10.35;;;3.00;;
17953;SDS011;9102;53.548;9.926;2022-08-02T02:11:08;11.40;;;2.63;;
17953;SDS011;9102;53.548;9.926;2022-08-02T02:13:35;7.03;;;2.80;;
17953;SDS011;9102;53.548;9.926;2022-08-02T02:16:06;7.93;;;2.80;;
17953;SDS011;9102;53.548;9.926;2022-08-02T02:18:38;13.68;;;2.67;;
17953;SDS011;9102;53.548;9.926;2022-08-02T02:21:08;8.90;;;3.05;;
17953;SDS011;9102;53.548;9.926;2022-08-02T02:23:35;11.35;;;3.03;;
17953;SDS011;9102;53.548;9.926;2022-08-02T02:26:02;10.00;;;2.70;;
17953;SDS011;9102;53.548;9.926;2022-08-02T02:28:30;8.15;;;2.80;;
17953;SDS011;9102;53.548;9.926;2022-08-02T02:31:01;11.23;;;3.35;;
17953;SDS011;9102;53.548;9.926;2022-08-02T02:33:31;6.07;;;2.78;;
17953;SDS011;9102;53.548;9.926;2022-08-02T02:36:02;12.25;;;2.90;;
17953;SDS011;9102;53.548;9.926;2022-08-02T02:38:31;7.25;;;2.70;;
17953;SDS011;9102;53.548;9.926;2022-08-02T02:40:59;8.13;;;2.85;;
17953;SDS011;9102;53.548;9.926;2022-08-02T02:43:29;10.43;;;3.05;;
17953;SDS011;9102;53.548;9.926;2022-08-02T02:45:57;13.15;;;3.25;;
17953;SDS011;9102;53.548;9.926;2022-08-02T02:48:25;8.43;;;2.95;;
17953;SDS011;9102;53.548;9.926;2022-08-02T02:50:54;11.20;;;3.28;;
17953;SDS011;9102;53.548;9.926;2022-08-02T02:53:23;13.98;;;3.40;;
17953;SDS011;9102;53.548;9.926;2022-08-02T02:55:51;10.98;;;3.10;;
17953;SDS011;9102;53.548;9.926;2022-08-02T02:58:19;10.00;;;3.35;;
17953;SDS011;9102;53.548;9.926;2022-08-02T03:00:46;12.43;;;3.28;;
17953;SDS011;9102;53.548;9.926;2022-08-02T03:03:31;12.23;;;3.15;;
17953;SDS011;9102;53.548;9.926;2022-08-02T03:05:59;11.55;;;3.50;;
17953;SDS011;9102;53.548;9.926;2022-08-02T03:08:27;7.88;;;3.38;;
17953;SDS011;9102;53.548;9.926;2022-08-02T03:10:54;8.38;;;3.03;;
17953;SDS011;9102;53.548;9.926;2022-08-02T03:13:22;8.80;;;3.65;;
17953;SDS011;9102;53.548;9.926;2022-08-02T03:15:49;10.73;;;3.28;;
17953;SDS011;9102;53.548;9.926;2022-08-02T03:18:31;7.95;;;3.22;;
17953;SDS011;9102;53.548;9.926;2022-08-02T03:20:59;9.60;;;2.80;;
17953;SDS011;9102;53.548;9.926;2022-08-02T03:23:28;9.40;;;3.35;;
17953;SDS011;9102;53.548;9.926;2022-08-02T03:25:55;10.98;;;3.50;;
17953;SDS011;9102;53.548;9.926;2022-08-02T03:28:22;17.67;;;3.95;;
17953;SDS011;9102;53.548;9.926;2022-08-02T03:30:50;8.10;;;3.20;;
17953;SDS011;9102;53.548;9.926;2022-08-02T03:33:17;9.73;;;3.25;;
17953;SDS011;9102;53.548;9.926;2022-08-02T03:35:46;11.68;;;3.55;;
17953;SDS011;9102;53.548;9.926;2022-08-02T03:38:15;16.23;;;4.35;;
17953;SDS011;9102;53.548;9.926;2022-08-02T03:40:46;16.15;;;4.40;;
17953;SDS011;9102;53.548;9.926;2022-08-02T03:43:13;7.40;;;3.40;;
17953;SDS011;9102;53.548;9.926;2022-08-02T03:45:41;8.38;;;3.08;;
17953;SDS011;9102;53.548;9.926;2022-08-02T03:48:09;11.77;;;3.42;;
17953;SDS011;9102;53.548;9.926;2022-08-02T03:50:37;11.00;;;3.97;;
17953;SDS011;9102;53.548;9.926;2022-08-02T03:53:06;7.80;;;3.33;;
17953;SDS011;9102;53.548;9.926;2022-08-02T03:55:34;9.07;;;3.40;;
17953;SDS011;9102;53.548;9.926;2022-08-02T03:58:03;6.47;;;2.80;;
17953;SDS011;9102;53.548;9.926;2022-08-02T04:00:30;6.53;;;3.03;;
17953;SDS011;9102;53.548;9.926;2022-08-02T04:02:57;10.13;;;3.45;;
17953;SDS011;9102;53.548;9.926;2022-08-02T04:05:25;10.35;;;3.10;;
17953;SDS011;9102;53.548;9.926;2022-08-02T04:07:51;8.10;;;3.20;;
17953;SDS011;9102;53.548;9.926;2022-08-02T04:10:18;7.85;;;3.60;;
17953;SDS011;9102;53.548;9.926;2022-08-02T04:12:45;9.63;;;3.70;;
17953;SDS011;9102;53.548;9.926;2022-08-02T04:15:13;9.10;;;3.40;;
17953;SDS011;9102;53.548;9.926;2022-08-02T04:17:42;15.20;;;3.95;;
17953;SDS011;9102;53.548;9.926;2022-08-02T04:20:16;12.70;;;3.47;;
17953;SDS011;9102;53.548;9.926;2022-08-02T04:22:46;11.55;;;3.70;;
17953;SDS011;9102;53.548;9.926;2022-08-02T04:25:16;14.65;;;3.20;;
17953;SDS011;9102;53.548;9.926;2022-08-02T04:27:45;16.33;;;3.75;;
17953;SDS011;9102;53.548;9.926;2022-08-02T04:30:15;13.23;;;4.38;;
17953;SDS011;9102;53.548;9.926;2022-08-02T04:32:43;10.40;;;3.65;;
17953;SDS011;9102;53.548;9.926;2022-08-02T04:35:11;10.07;;;3.38;;
17953;SDS011;9102;53.548;9.926;2022-08-02T04:37:38;19.25;;;4.00;;
17953;SDS011;9102;53.548;9.926;2022-08-02T04:40:07;15.13;;;4.00;;
17953;SDS011;9102;53.548;9.926;2022-08-02T04:42:35;13.75;;;3.35;;
17953;SDS011;9102;53.548;9.926;2022-08-02T04:45:03;12.18;;;3.50;;
17953;SDS011;9102;53.548;9.926;2022-08-02T04:47:31;14.93;;;3.70;;
17953;SDS011;9102;53.548;9.926;2022-08-02T04:49:58;9.35;;;3.80;;
17953;SDS011;9102;53.548;9.926;2022-08-02T04:52:25;10.88;;;3.38;;
17953;SDS011;9102;53.548;9.926;2022-08-02T04:54:52;10.45;;;3.70;;
17953;SDS011;9102;53.548;9.926;2022-08-02T04:57:19;11.40;;;3.35;;
17953;SDS011;9102;53.548;9.926;2022-08-02T05:00:12;11.05;;;3.40;;
17953;SDS011;9102;53.548;9.926;2022-08-02T05:02:41;10.82;;;3.40;;
17953;SDS011;9102;53.548;9.926;2022-08-02T05:05:08;8.27;;;3.28;;
17953;SDS011;9102;53.548;9.926;2022-08-02T05:07:35;10.93;;;3.80;;
17953;SDS011;9102;53.548;9.926;2022-08-02T05:10:02;11.82;;;3.67;;
17953;SDS011;9102;53.548;9.926;2022-08-02T05:12:29;8.07;;;3.28;;
17953;SDS011;9102;53.548;9.926;2022-08-02T05:14:56;8.32;;;3.65;;
17953;SDS011;9102;53.548;9.926;2022-08-02T05:17:23;15.77;;;3.58;;
17953;SDS011;9102;53.548;9.926;2022-08-02T05:19:51;12.23;;;2.95;;
17953;SDS011;9102;53.548;9.926;2022-08-02T05:22:18;8.57;;;3.28;;
17953;SDS011;9102;53.548;9.926;2022-08-02T05:24:45;13.25;;;4.25;;
17953;SDS011;9102;53.548;9.926;2022-08-02T05:27:11;10.93;;;3.00;;
17953;SDS011;9102;53.548;9.926;2022-08-02T05:29:38;11.70;;;3.25;;
17953;SDS011;9102;53.548;9.926;2022-08-02T05:32:05;12.10;;;2.60;;
17953;SDS011;9102;53.548;9.926;2022-08-02T05:34:32;13.80;;;2.85;;
17953;SDS011;9102;53.548;9.926;2022-08-02T05:37:00;12.45;;;3.30;;
17953;SDS011;9102;53.548;9.926;2022-08-02T05:39:27;14.48;;;3.17;;
17953;SDS011;9102;53.548;9.926;2022-08-02T05:41:54;15.13;;;3.78;;
17953;SDS011;9102;53.548;9.926;2022-08-02T05:44:21;12.60;;;3.50;;
17953;SDS011;9102;53.548;9.926;2022-08-02T05:46:48;9.98;;;3.20;;
17953;SDS011;9102;53.548;9.926;2022-08-02T05:49:14;15.23;;;3.17;;
17953;SDS011;9102;53.548;9.926;2022-08-02T05:51:42;8.88;;;3.50;;
17953;SDS011;9102;53.548;9.926;2022-08-02T05:54:18;11.10;;;3.20;;
17953;SDS011;9102;53.548;9.926;2022-08-02T05:56:50;7.55;;;2.35;;
17953;SDS011;9102;53.548;9.926;2022-08-02T05:59:25;11.95;;;3.55;;
17953;SDS011;9102;53.548;9.926;2022-08-02T06:01:57;10.07;;;2.55;;
17953;SDS011;9102;53.548;9.926;2022-08-02T06:04:30;11.57;;;2.75;;
17953;SDS011;9102;53.548;9.926;2022-08-02T06:07:00;10.20;;;2.00;;
17953;SDS011;9102;53.548;9.926;2022-08-02T06:09:31;12.77;;;2.40;;
17953;SDS011;9102;53.548;9.926;2022-08-02T06:11:59;10.32;;;2.22;;
17953;SDS011;9102;53.548;9.926;2022-08-02T06:14:30;7.82;;;2.45;;
17953;SDS011;9102;53.548;9.926;2022-08-02T06:16:57;10.43;;;2.08;;
17953;SDS011;9102;53.548;9.926;2022-08-02T06:19:24;9.40;;;2.53;;
17953;SDS011;9102;53.548;9.926;2022-08-02T06:21:51;8.60;;;1.95;;
17953;SDS011;9102;53.548;9.926;2022-08-02T06:24:19;9.85;;;2.53;;
17953;SDS011;9102;53.548;9.926;2022-08-02T06:26:49;10.52;;;1.73;;
17953;SDS011;9102;53.548;9.926;2022-08-02T06:29:19;7.70;;;1.80;;
17953;SDS011;9102;53.548;9.926;2022-08-02T06:31:46;11.80;;;2.28;;
17953;SDS011;9102;53.548;9.926;2022-08-02T06:34:15;10.25;;;2.35;;
17953;SDS011;9102;53.548;9.926;2022-08-02T06:36:45;11.55;;;1.70;;
17953;SDS011;9102;53.548;9.926;2022-08-02T06:39:18;8.27;;;2.15;;
17953;SDS011;9102;53.548;9.926;2022-08-02T06:41:48;10.52;;;2.30;;
17953;SDS011;9102;53.548;9.926;2022-08-02T06:44:17;12.45;;;2.35;;
17953;SDS011;9102;53.548;9.926;2022-08-02T06:46:44;11.60;;;2.97;;
17953;SDS011;9102;53.548;9.926;2022-08-02T06:49:11;10.15;;;2.55;;
17953;SDS011;9102;53.548;9.926;2022-08-02T06:51:37;8.82;;;2.10;;
17953;SDS011;9102;53.548;9.926;2022-08-02T06:54:05;8.23;;;1.85;;
17953;SDS011;9102;53.548;9.926;2022-08-02T06:56:32;9.27;;;2.05;;
17953;SDS011;9102;53.548;9.926;2022-08-02T06:59:00;6.90;;;1.63;;
17953;SDS011;9102;53.548;9.926;2022-08-02T07:01:27;6.35;;;1.83;;
17953;SDS011;9102;53.548;9.926;2022-08-02T07:03:54;8.57;;;1.67;;
17953;SDS011;9102;53.548;9.926;2022-08-02T07:06:21;9.65;;;1.90;;
17953;SDS011;9102;53.548;9.926;2022-08-02T07:08:48;6.20;;;1.90;;
17953;SDS011;9102;53.548;9.926;2022-08-02T07:11:14;8.05;;;1.50;;
17953;SDS011;9102;53.548;9.926;2022-08-02T07:13:43;11.38;;;1.85;;
17953;SDS011;9102;53.548;9.926;2022-08-02T07:16:11;12.05;;;2.50;;
17953;SDS011;9102;53.548;9.926;2022-08-02T07:18:38;11.57;;;2.28;;
17953;SDS011;9102;53.548;9.926;2022-08-02T07:21:05;9.10;;;1.90;;
17953;SDS011;9102;53.548;9.926;2022-08-02T07:23:31;9.63;;;2.13;;
17953;SDS011;9102;53.548;9.926;2022-08-02T07:25:59;9.57;;;1.98;;
17953;SDS011;9102;53.548;9.926;2022-08-02T07:28:26;10.82;;;1.98;;
17953;SDS011;9102;53.548;9.926;2022-08-02T07:30:52;5.97;;;2.17;;
17953;SDS011;9102;53.548;9.926;2022-08-02T07:33:21;5.63;;;1.67;;
17953;SDS011;9102;53.548;9.926;2022-08-02T07:35:48;7.30;;;1.85;;
17953;SDS011;9102;53.548;9.926;2022-08-02T07:38:14;11.00;;;2.03;;
17953;SDS011;9102;53.548;9.926;2022-08-02T07:40:41;10.13;;;2.13;;
17953;SDS011;9102;53.548;9.926;2022-08-02T07:43:08;9.32;;;1.90;;
17953;SDS011;9102;53.548;9.926;2022-08-02T07:45:35;8.32;;;1.90;;
17953;SDS011;9102;53.548;9.926;2022-08-02T07:48:02;6.72;;;1.70;;
17953;SDS011;9102;53.548;9.926;2022-08-02T07:50:31;7.85;;;1.92;;
17953;SDS011;9102;53.548;9.926;2022-08-02T07:52:58;8.18;;;1.92;;
17953;SDS011;9102;53.548;9.926;2022-08-02T07:55:25;9.10;;;2.00;;
17953;SDS011;9102;53.548;9.926;2022-08-02T07:57:52;11.43;;;2.22;;
17953;SDS011;9102;53.548;9.926;2022-08-02T08:00:19;9.60;;;1.85;;
17953;SDS011;9102;53.548;9.926;2022-08-02T08:02:46;13.15;;;2.40;;
17953;SDS011;9102;53.548;9.926;2022-08-02T08:05:13;9.52;;;2.38;;
17953;SDS011;9102;53.548;9.926;2022-08-02T08:07:42;8.20;;;1.98;;
17953;SDS011;9102;53.548;9.926;2022-08-02T08:10:09;6.47;;;2.33;;
17953;SDS011;9102;53.548;9.926;2022-08-02T08:12:36;8.52;;;2.22;;
17953;SDS011;9102;53.548;9.926;2022-08-02T08:15:03;9.07;;;2.22;;
17953;SDS011;9102;53.548;9.926;2022-08-02T08:17:30;10.32;;;2.05;;
17953;SDS011;9102;53.548;9.926;2022-08-02T08:19:59;8.73;;;1.58;;
17953;SDS011;9102;53.548;9.926;2022-08-02T08:22:26;7.53;;;2.10;;
17953;SDS011;9102;53.548;9.926;2022-08-02T08:24:55;12.07;;;2.05;;
17953;SDS011;9102;53.548;9.926;2022-08-02T08:27:21;7.78;;;1.90;;
17953;SDS011;9102;53.548;9.926;2022-08-02T08:29:48;7.68;;;1.88;;
17953;SDS011;9102;53.548;9.926;2022-08-02T08:32:15;7.45;;;2.10;;
17953;SDS011;9102;53.548;9.926;2022-08-02T08:34:43;8.45;;;2.08;;
17953;SDS011;9102;53.548;9.926;2022-08-02T08:37:10;10.63;;;1.80;;
17953;SDS011;9102;53.548;9.926;2022-08-02T08:39:36;7.30;;;1.80;;
17953;SDS011;9102;53.548;9.926;2022-08-02T08:42:06;8.05;;;2.00;;
17953;SDS011;9102;53.548;9.926;2022-08-02T08:44:33;10.20;;;2.35;;
17953;SDS011;9102;53.548;9.926;2022-08-02T08:47:00;9.43;;;2.47;;
17953;SDS011;9102;53.548;9.926;2022-08-02T08:49:30;5.93;;;1.63;;
17953;SDS011;9102;53.548;9.926;2022-08-02T08:51:59;8.98;;;2.05;;
17953;SDS011;9102;53.548;9.926;2022-08-02T08:54:30;8.60;;;1.60;;
17953;SDS011;9102;53.548;9.926;2022-08-02T08:57:02;10.32;;;1.75;;
17953;SDS011;9102;53.548;9.926;2022-08-02T08:59:31;12.25;;;2.03;;
17953;SDS011;9102;53.548;9.926;2022-08-02T09:01:58;10.95;;;1.77;;
17953;SDS011;9102;53.548;9.926;2022-08-02T09:04:27;11.63;;;1.90;;
17953;SDS011;9102;53.548;9.926;2022-08-02T09:06:54;7.22;;;2.05;;
17953;SDS011;9102;53.548;9.926;2022-08-02T09:09:21;8.43;;;1.90;;
17953;SDS011;9102;53.548;9.926;2022-08-02T09:11:48;7.13;;;1.80;;
17953;SDS011;9102;53.548;9.926;2022-08-02T09:14:24;8.55;;;1.88;;
17953;SDS011;9102;53.548;9.926;2022-08-02T09:16:54;6.05;;;1.90;;
17953;SDS011;9102;53.548;9.926;2022-08-02T09:19:31;6.20;;;1.52;;
17953;SDS011;9102;53.548;9.926;2022-08-02T09:21:59;4.63;;;1.42;;
17953;SDS011;9102;53.548;9.926;2022-08-02T09:24:27;6.75;;;1.60;;
17953;SDS011;9102;53.548;9.926;2022-08-02T09:26:54;7.75;;;1.73;;
17953;SDS011;9102;53.548;9.926;2022-08-02T09:29:22;7.60;;;1.65;;
17953;SDS011;9102;53.548;9.926;2022-08-02T09:31:49;5.80;;;1.70;;
17953;SDS011;9102;53.548;9.926;2022-08-02T09:34:18;5.32;;;1.20;;
17953;SDS011;9102;53.548;9.926;2022-08-02T09:36:46;7.72;;;1.38;;
17953;SDS011;9102;53.548;9.926;2022-08-02T09:39:14;7.22;;;1.40;;
17953;SDS011;9102;53.548;9.926;2022-08-02T09:41:42;4.22;;;1.33;;
17953;SDS011;9102;53.548;9.926;2022-08-02T09:44:10;6.80;;;1.65;;
17953;SDS011;9102;53.548;9.926;2022-08-02T09:46:39;6.40;;;1.67;;
17953;SDS011;9102;53.548;9.926;2022-08-02T09:49:08;4.97;;;1.60;;
17953;SDS011;9102;53.548;9.926;2022-08-02T09:51:39;6.43;;;1.38;;
17953;SDS011;9102;53.548;9.926;2022-08-02T09:54:15;5.30;;;1.60;;
17953;SDS011;9102;53.548;9.926;2022-08-02T09:56:45;3.90;;;1.50;;
17953;SDS011;9102;53.548;9.926;2022-08-02T09:59:15;9.35;;;1.67;;
17953;SDS011;9102;53.548;9.926;2022-08-02T10:01:44;6.50;;;1.20;;
17953;SDS011;9102;53.548;9.926;2022-08-02T10:04:13;6.43;;;1.30;;
17953;SDS011;9102;53.548;9.926;2022-08-02T10:06:42;6.82;;;1.33;;
17953;SDS011;9102;53.548;9.926;2022-08-02T10:09:09;6.65;;;1.50;;
17953;SDS011;9102;53.548;9.926;2022-08-02T10:11:37;5.22;;;1.30;;
17953;SDS011;9102;53.548;9.926;2022-08-02T10:14:07;4.78;;;1.20;;
17953;SDS011;9102;53.548;9.926;2022-08-02T10:16:35;7.68;;;1.25;;
17953;SDS011;9102;53.548;9.926;2022-08-02T10:19:03;7.13;;;1.83;;
17953;SDS011;9102;53.548;9.926;2022-08-02T10:21:31;4.72;;;1.25;;
17953;SDS011;9102;53.548;9.926;2022-08-02T10:24:05;7.22;;;1.30;;
17953;SDS011;9102;53.548;9.926;2022-08-02T10:26:34;7.03;;;1.50;;
17953;SDS011;9102;53.548;9.926;2022-08-02T10:29:04;7.18;;;1.30;;
17953;SDS011;9102;53.548;9.926;2022-08-02T10:31:32;4.95;;;1.40;;
17953;SDS011;9102;53.548;9.926;2022-08-02T10:34:03;7.82;;;1.50;;
17953;SDS011;9102;53.548;9.926;2022-08-02T10:36:35;5.07;;;1.58;;
17953;SDS011;9102;53.548;9.926;2022-08-02T10:39:06;5.50;;;1.48;;
17953;SDS011;9102;53.548;9.926;2022-08-02T10:41:40;5.22;;;1.40;;
17953;SDS011;9102;53.548;9.926;2022-08-02T10:44:15;6.60;;;2.00;;
17953;SDS011;9102;53.548;9.926;2022-08-02T10:46:46;8.02;;;1.40;;
17953;SDS011;9102;53.548;9.926;2022-08-02T10:49:13;4.40;;;1.55;;
17953;SDS011;9102;53.548;9.926;2022-08-02T10:51:57;6.25;;;1.55;;
17953;SDS011;9102;53.548;9.926;2022-08-02T10:54:36;5.80;;;1.50;;
17953;SDS011;9102;53.548;9.926;2022-08-02T10:57:18;2.88;;;1.23;;
17953;SDS011;9102;53.548;9.926;2022-08-02T10:59:46;4.07;;;1.30;;
17953;SDS011;9102;53.548;9.926;2022-08-02T11:02:31;3.95;;;1.10;;
17953;SDS011;9102;53.548;9.926;2022-08-02T11:05:06;2.83;;;1.20;;
17953;SDS011;9102;53.548;9.926;2022-08-02T11:07:36;4.88;;;1.13;;
17953;SDS011;9102;53.548;9.926;2022-08-02T11:13:08;4.63;;;1.55;;
17953;SDS011;9102;53.548;9.926;2022-08-02T11:15:51;4.20;;;1.30;;
17953;SDS011;9102;53.548;9.926;2022-08-02T11:18:21;5.30;;;1.30;;
17953;SDS011;9102;53.548;9.926;2022-08-02T11:29:09;3.78;;;1.25;;
17953;SDS011;9102;53.548;9.926;2022-08-02T11:31:37;7.28;;;1.13;;
17953;SDS011;9102;53.548;9.926;2022-08-02T11:34:05;3.78;;;1.25;;
17953;SDS011;9102;53.548;9.926;2022-08-02T11:36:32;4.10;;;1.63;;
17953;SDS011;9102;53.548;9.926;2022-08-02T11:39:08;7.68;;;1.33;;
17953;SDS011;9102;53.548;9.926;2022-08-02T11:41:35;5.00;;;1.33;;
17953;SDS011;9102;53.548;9.926;2022-08-02T11:44:03;4.10;;;1.10;;
17953;SDS011;9102;53.548;9.926;2022-08-02T11:46:30;8.05;;;1.63;;
17953;SDS011;9102;53.548;9.926;2022-08-02T11:49:01;5.82;;;1.83;;
17953;SDS011;9102;53.548;9.926;2022-08-02T11:51:37;3.60;;;1.35;;
17953;SDS011;9102;53.548;9.926;2022-08-02T11:54:04;3.95;;;1.20;;
17953;SDS011;9102;53.548;9.926;2022-08-02T11:56:31;6.25;;;1.20;;
17953;SDS011;9102;53.548;9.926;2022-08-02T11:59:02;18.83;;;2.80;;
17953;SDS011;9102;53.548;9.926;2022-08-02T12:01:33;7.22;;;2.20;;
17953;SDS011;9102;53.548;9.926;2022-08-02T12:04:01;7.97;;;3.28;;
17953;SDS011;9102;53.548;9.926;2022-08-02T12:06:28;3.85;;;1.73;;
17953;SDS011;9102;53.548;9.926;2022-08-02T12:09:02;2.95;;;1.40;;
17953;SDS011;9102;53.548;9.926;2022-08-02T12:11:30;4.05;;;1.75;;
17953;SDS011;9102;53.548;9.926;2022-08-02T12:13:57;5.15;;;1.60;;
17953;SDS011;9102;53.548;9.926;2022-08-02T12:16:31;4.85;;;1.50;;
17953;SDS011;9102;53.548;9.926;2022-08-02T12:19:16;3.85;;;1.00;;
17953;SDS011;9102;53.548;9.926;2022-08-02T12:21:47;5.65;;;1.77;;
17953;SDS011;9102;53.548;9.926;2022-08-02T12:24:25;4.57;;;1.40;;
17953;SDS011;9102;53.548;9.926;2022-08-02T12:26:53;6.22;;;1.40;;
17953;SDS011;9102;53.548;9.926;2022-08-02T12:29:27;5.88;;;1.33;;
17953;SDS011;9102;53.548;9.926;2022-08-02T12:31:56;7.50;;;1.55;;
17953;SDS011;9102;53.548;9.926;2022-08-02T12:34:24;4.47;;;1.38;;
17953;SDS011;9102;53.548;9.926;2022-08-02T12:36:59;7.07;;;1.40;;
17953;SDS011;9102;53.548;9.926;2022-08-02T12:39:34;5.28;;;1.23;;
17953;SDS011;9102;53.548;9.926;2022-08-02T12:42:03;5.70;;;1.33;;
17953;SDS011;9102;53.548;9.926;2022-08-02T12:44:30;2.80;;;1.35;;
17953;SDS011;9102;53.548;9.926;2022-08-02T12:46:59;3.75;;;1.08;;
17953;SDS011;9102;53.548;9.926;2022-08-02T12:49:28;4.50;;;1.33;;
17953;SDS011;9102;53.548;9.926;2022-08-02T12:51:55;2.58;;;1.00;;
17953;SDS011;9102;53.548;9.926;2022-08-02T12:54:23;3.70;;;1.30;;
17953;SDS011;9102;53.548;9.926;2022-08-02T12:56:51;4.20;;;1.40;;
17953;SDS011;9102;53.548;9.926;2022-08-02T12:59:34;2.65;;;1.15;;
17953;SDS011;9102;53.548;9.926;2022-08-02T13:02:05;7.35;;;2.08;;
17953;SDS011;9102;53.548;9.926;2022-08-02T13:04:33;4.13;;;1.42;;
17953;SDS011;9102;53.548;9.926;2022-08-02T13:07:00;4.55;;;1.08;;
17953;SDS011;9102;53.548;9.926;2022-08-02T13:09:27;3.13;;;1.50;;
17953;SDS011;9102;53.548;9.926;2022-08-02T13:12:00;2.63;;;0.95;;
17953;SDS011;9102;53.548;9.926;2022-08-02T13:14:27;2.85;;;1.25;;
17953;SDS011;9102;53.548;9.926;2022-08-02T13:16:53;3.42;;;1.15;;
17953;SDS011;9102;53.548;9.926;2022-08-02T13:19:22;7.50;;;3.28;;
17953;SDS011;9102;53.548;9.926;2022-08-02T13:21:49;4.15;;;1.20;;
17953;SDS011;9102;53.548;9.926;2022-08-02T13:24:15;5.00;;;1.42;;
17953;SDS011;9102;53.548;9.926;2022-08-02T13:26:42;2.58;;;1.00;;
17953;SDS011;9102;53.548;9.926;2022-08-02T13:29:10;1.83;;;1.05;;
17953;SDS011;9102;53.548;9.926;2022-08-02T13:31:38;2.20;;;1.30;;
17953;SDS011;9102;53.548;9.926;2022-08-02T13:34:05;5.60;;;1.27;;
17953;SDS011;9102;53.548;9.926;2022-08-02T13:36:34;2.72;;;1.15;;
17953;SDS011;9102;53.548;9.926;2022-08-02T13:39:02;5.88;;;1.20;;
17953;SDS011;9102;53.548;9.926;2022-08-02T13:41:29;3.65;;;1.23;;
17953;SDS011;9102;53.548;9.926;2022-08-02T13:43:56;2.65;;;1.10;;
17953;SDS011;9102;53.548;9.926;2022-08-02T13:46:23;5.28;;;1.20;;
17953;SDS011;9102;53.548;9.926;2022-08-02T13:48:50;3.33;;;1.30;;
17953;SDS011;9102;53.548;9.926;2022-08-02T13:51:17;2.15;;;0.98;;
17953;SDS011;9102;53.548;9.926;2022-08-02T13:53:45;2.35;;;1.23;;
17953;SDS011;9102;53.548;9.926;2022-08-02T13:56:12;2.63;;;1.23;;
17953;SDS011;9102;53.548;9.926;2022-08-02T13:58:40;4.05;;;1.00;;
17953;SDS011;9102;53.548;9.926;2022-08-02T14:01:06;3.95;;;1.40;;
17953;SDS011;9102;53.548;9.926;2022-08-02T14:03:33;3.33;;;1.40;;
17953;SDS011;9102;53.548;9.926;2022-08-02T14:06:00;4.93;;;1.50;;
17953;SDS011;9102;53.548;9.926;2022-08-02T14:08:27;2.58;;;1.20;;
17953;SDS011;9102;53.548;9.926;2022-08-02T14:10:55;4.13;;;1.40;;
17953;SDS011;9102;53.548;9.926;2022-08-02T14:13:22;5.10;;;1.27;;
17953;SDS011;9102;53.548;9.926;2022-08-02T14:15:49;2.83;;;1.17;;
17953;SDS011;9102;53.548;9.926;2022-08-02T14:18:16;2.40;;;1.38;;
17953;SDS011;9102;53.548;9.926;2022-08-02T14:20:43;3.20;;;1.60;;
17953;SDS011;9102;53.548;9.926;2022-08-02T14:23:10;3.97;;;1.60;;
17953;SDS011;9102;53.548;9.926;2022-08-02T14:25:37;3.10;;;1.33;;
17953;SDS011;9102;53.548;9.926;2022-08-02T14:28:06;2.17;;;1.23;;
17953;SDS011;9102;53.548;9.926;2022-08-02T14:30:33;6.38;;;1.27;;
17953;SDS011;9102;53.548;9.926;2022-08-02T14:33:00;4.53;;;1.35;;
17953;SDS011;9102;53.548;9.926;2022-08-02T14:35:28;5.10;;;1.38;;
17953;SDS011;9102;53.548;9.926;2022-08-02T14:37:54;2.80;;;1.15;;
17953;SDS011;9102;53.548;9.926;2022-08-02T14:40:21;2.67;;;1.50;;
17953;SDS011;9102;53.548;9.926;2022-08-02T14:42:48;5.88;;;1.67;;
17953;SDS011;9102;53.548;9.926;2022-08-02T14:45:18;3.33;;;1.42;;
17953;SDS011;9102;53.548;9.926;2022-08-02T14:47:46;6.05;;;1.50;;
17953;SDS011;9102;53.548;9.926;2022-08-02T14:50:13;3.65;;;1.40;;
17953;SDS011;9102;53.548;9.926;2022-08-02T14:52:41;1.98;;;1.20;;
17953;SDS011;9102;53.548;9.926;2022-08-02T14:55:07;3.67;;;1.58;;
17953;SDS011;9102;53.548;9.926;2022-08-02T14:57:34;4.15;;;1.00;;
17953;SDS011;9102;53.548;9.926;2022-08-02T15:00:02;3.85;;;1.77;;
17953;SDS011;9102;53.548;9.926;2022-08-02T15:02:32;1.85;;;1.23;;
17953;SDS011;9102;53.548;9.926;2022-08-02T15:04:58;5.95;;;1.63;;
17953;SDS011;9102;53.548;9.926;2022-08-02T15:07:25;2.47;;;1.27;;
17953;SDS011;9102;53.548;9.926;2022-08-02T15:09:52;4.95;;;1.48;;
17953;SDS011;9102;53.548;9.926;2022-08-02T15:12:19;2.28;;;1.13;;
17953;SDS011;9102;53.548;9.926;2022-08-02T15:14:46;3.17;;;1.60;;
17953;SDS011;9102;53.548;9.926;2022-08-02T15:17:12;5.07;;;1.35;;
17953;SDS011;9102;53.548;9.926;2022-08-02T15:19:41;3.95;;;1.52;;